Time;durP1;ratioP1;P1;durP2;ratioP2;P2;SDS_P1;SDS_P2;PMS_P1;PMS_P2;Temp;Humidity;BMP_temperature;BMP_pressure;BME280_temperature;BME280_humidity;BME280_pressure;Samples;Min_cycle;Max_cycle;Signal;HPM_P1;HPM_P2
2022/07/02 00:01:19;;;;;;;1.85;1.55;;;15.20;99.90;;;;;;5020022;28;20848;-81
2022/07/02 00:03:51;;;;;;;4.57;1.92;;;15.20;99.90;;;;;;5020916;28;20056;-80
2022/07/02 00:06:20;;;;;;;1.55;1.45;;;15.20;99.90;;;;;;5020620;28;20547;-80
2022/07/02 00:08:46;;;;;;;2.60;1.75;;;15.20;99.90;;;;;;5020060;28;20085;-80
2022/07/02 00:11:15;;;;;;;1.48;1.33;;;15.20;99.90;;;;;;5020065;28;20447;-81
2022/07/02 00:13:41;;;;;;;2.88;2.15;;;15.20;99.90;;;;;;5020097;28;20129;-81
2022/07/02 00:16:11;;;;;;;2.28;1.52;;;15.10;99.90;;;;;;5020420;28;20044;-81
2022/07/02 00:18:37;;;;;;;1.80;1.70;;;15.10;99.90;;;;;;5020394;28;20508;-80
2022/07/02 00:21:03;;;;;;;5.20;1.83;;;15.10;99.90;;;;;;5021061;28;20053;-81
2022/07/02 00:23:29;;;;;;;2.05;1.80;;;15.10;99.90;;;;;;5019402;28;20042;-80
2022/07/02 00:26:03;;;;;;;4.18;1.10;;;15.10;99.90;;;;;;5019740;28;20041;-80
2022/07/02 00:28:30;;;;;;;2.05;1.85;;;15.00;99.90;;;;;;5020605;28;20148;-80
2022/07/02 00:30:56;;;;;;;2.00;1.45;;;15.00;99.90;;;;;;5019316;28;20033;-80
2022/07/02 00:33:24;;;;;;;1.63;1.42;;;15.00;99.90;;;;;;5019557;28;20103;-81
2022/07/02 00:35:50;;;;;;;2.35;1.67;;;15.00;99.90;;;;;;5019910;28;20029;-81
2022/07/02 00:38:16;;;;;;;6.88;1.80;;;15.10;99.90;;;;;;5020775;28;20677;-80
2022/07/02 00:40:43;;;;;;;2.42;1.50;;;15.10;99.90;;;;;;5020178;28;20395;-80
2022/07/02 00:43:09;;;;;;;3.50;1.45;;;15.10;99.90;;;;;;5019977;28;20085;-81
2022/07/02 00:45:38;;;;;;;2.40;1.48;;;15.10;99.90;;;;;;5020926;28;20051;-81
2022/07/02 00:48:03;;;;;;;2.33;1.35;;;15.10;99.90;;;;;;5020287;28;20045;-80
2022/07/02 00:50:30;;;;;;;7.45;1.38;;;15.10;99.90;;;;;;5020447;28;20041;-80
2022/07/02 00:52:56;;;;;;;1.55;1.08;;;15.10;99.90;;;;;;5020612;28;20424;-80
2022/07/02 00:55:21;;;;;;;8.57;1.38;;;15.10;99.90;;;;;;5019287;28;20503;-80
2022/07/02 00:57:48;;;;;;;1.90;0.88;;;15.00;99.90;;;;;;5020224;28;20041;-80
2022/07/02 01:00:18;;;;;;;10.05;1.27;;;15.00;99.90;;;;;;5022141;28;20045;-80
2022/07/02 01:02:45;;;;;;;1.60;1.00;;;14.90;99.90;;;;;;5024197;28;20132;-80
2022/07/02 01:05:16;;;;;;;5.70;1.60;;;14.90;99.90;;;;;;5024634;28;20041;-80
2022/07/02 01:10:52;;;;;;;1.52;1.25;;;14.90;99.90;;;;;;5021046;28;20100;-80
2022/07/02 01:13:18;;;;;;;3.83;1.58;;;14.80;99.90;;;;;;5024665;28;20137;-80
2022/07/02 01:15:44;;;;;;;1.80;1.17;;;14.70;99.90;;;;;;5023701;28;20735;-80
2022/07/02 01:18:10;;;;;;;3.25;1.15;;;14.70;99.90;;;;;;5024772;28;20209;-80
2022/07/02 01:20:36;;;;;;;1.85;1.45;;;14.70;99.90;;;;;;5023315;28;20431;-80
2022/07/02 01:23:02;;;;;;;3.78;1.23;;;14.60;99.90;;;;;;5023526;28;20041;-80
2022/07/02 01:25:28;;;;;;;0.77;0.75;;;14.60;99.90;;;;;;5023403;28;20052;-80
2022/07/02 01:27:53;;;;;;;1.45;1.25;;;14.60;99.90;;;;;;5023588;28;20408;-81
2022/07/02 01:30:19;;;;;;;0.75;0.75;;;14.60;99.90;;;;;;5024029;28;20060;-81
2022/07/02 01:32:45;;;;;;;2.58;1.27;;;14.50;99.90;;;;;;5024241;28;20081;-81
2022/07/02 01:35:10;;;;;;;0.63;0.63;;;14.50;99.90;;;;;;5022334;28;20071;-80
2022/07/02 01:37:40;;;;;;;5.88;1.48;;;14.50;99.90;;;;;;5023877;28;20118;-80
2022/07/02 01:40:07;;;;;;;2.35;1.05;;;14.50;99.90;;;;;;5021622;28;20136;-80
2022/07/02 01:42:32;;;;;;;1.48;0.85;;;14.50;99.90;;;;;;5023899;28;20041;-80
2022/07/02 01:44:58;;;;;;;1.33;1.20;;;14.50;99.90;;;;;;5023625;28;20164;-80
2022/07/02 01:47:24;;;;;;;2.20;1.50;;;14.50;99.90;;;;;;5023633;28;20121;-80
2022/07/02 01:49:49;;;;;;;5.00;1.52;;;14.40;99.90;;;;;;5023292;28;20045;-80
2022/07/02 01:52:16;;;;;;;2.20;1.17;;;14.50;99.90;;;;;;5023678;28;20080;-81
2022/07/02 01:54:42;;;;;;;3.55;1.38;;;14.50;99.90;;;;;;5022918;28;20037;-80
2022/07/02 01:57:08;;;;;;;2.25;1.20;;;14.50;99.90;;;;;;5022988;28;20052;-80
2022/07/02 01:59:34;;;;;;;2.95;1.60;;;14.50;99.90;;;;;;5023625;28;20050;-80
2022/07/02 02:02:01;;;;;;;3.03;1.30;;;14.40;99.90;;;;;;5023255;28;20042;-81
2022/07/02 02:04:27;;;;;;;0.60;0.60;;;14.40;99.90;;;;;;5021935;28;20496;-80
2022/07/02 02:06:53;;;;;;;0.90;0.90;;;14.40;99.90;;;;;;5021991;28;20075;-80
2022/07/02 02:09:19;;;;;;;1.02;0.80;;;14.40;99.90;;;;;;5022357;28;20038;-80
2022/07/02 02:11:45;;;;;;;1.15;1.05;;;14.40;99.90;;;;;;5021448;28;20085;-80
2022/07/02 02:14:11;;;;;;;1.67;1.35;;;14.30;99.90;;;;;;5023983;28;20050;-80
2022/07/02 02:16:37;;;;;;;0.75;0.75;;;14.30;99.90;;;;;;5021765;28;20052;-80
2022/07/02 02:19:03;;;;;;;4.97;1.10;;;14.30;99.90;;;;;;5022617;28;20045;-80
2022/07/02 02:21:29;;;;;;;6.25;1.30;;;14.20;99.90;;;;;;5021850;28;20123;-80
2022/07/02 02:23:56;;;;;;;0.65;0.65;;;14.20;99.90;;;;;;5021842;28;20042;-79
2022/07/02 02:26:22;;;;;;;9.27;1.48;;;14.20;99.90;;;;;;5022837;28;20041;-80
2022/07/02 02:28:47;;;;;;;1.55;1.45;;;14.20;99.90;;;;;;5021407;28;20098;-81
2022/07/02 02:31:13;;;;;;;1.10;1.05;;;14.20;99.90;;;;;;5021454;28;20672;-80
2022/07/02 02:33:39;;;;;;;2.00;1.27;;;14.20;99.90;;;;;;5023384;28;20071;-80
2022/07/02 02:36:05;;;;;;;1.63;1.33;;;14.10;99.90;;;;;;5022295;28;20499;-80
2022/07/02 02:38:31;;;;;;;1.58;1.48;;;14.10;99.90;;;;;;5021016;28;20121;-80
2022/07/02 02:40:57;;;;;;;1.45;1.10;;;14.00;99.90;;;;;;5021698;28;20415;-80
2022/07/02 02:43:22;;;;;;;0.95;0.95;;;14.10;99.90;;;;;;5022775;28;20711;-81
2022/07/02 02:45:48;;;;;;;5.93;1.58;;;14.10;99.90;;;;;;5022226;28;20138;-80
2022/07/02 02:48:15;;;;;;;2.88;1.45;;;14.10;99.90;;;;;;5022615;28;20041;-81
2022/07/02 02:50:41;;;;;;;2.22;1.98;;;14.10;99.90;;;;;;5022264;28;20048;-80
2022/07/02 02:53:06;;;;;;;1.08;1.00;;;14.10;99.90;;;;;;5022361;28;20046;-80
2022/07/02 02:55:32;;;;;;;1.48;1.30;;;14.10;99.90;;;;;;5021505;28;20140;-80
2022/07/02 02:57:57;;;;;;;1.98;1.45;;;14.10;99.90;;;;;;5021784;28;20124;-80
2022/07/02 03:00:23;;;;;;;1.92;1.63;;;14.10;99.90;;;;;;5021410;28;20134;-80
2022/07/02 03:02:49;;;;;;;2.17;1.98;;;14.10;99.90;;;;;;5020384;28;20041;-80
2022/07/02 03:05:14;;;;;;;4.57;1.42;;;14.10;99.90;;;;;;5022049;28;20049;-80
2022/07/02 03:07:40;;;;;;;1.85;1.75;;;14.10;99.90;;;;;;5022677;28;20038;-80
2022/07/02 03:10:06;;;;;;;4.63;1.77;;;14.10;99.90;;;;;;5020320;28;20183;-80
2022/07/02 03:12:32;;;;;;;2.03;1.83;;;14.10;99.90;;;;;;5022200;28;20048;-80
2022/07/02 03:14:57;;;;;;;2.17;1.98;;;14.10;99.90;;;;;;5022216;28;20042;-80
2022/07/02 03:17:23;;;;;;;1.55;1.38;;;14.10;99.90;;;;;;5021452;28;20526;-80
2022/07/02 03:19:51;;;;;;;2.50;2.30;;;14.10;99.90;;;;;;5022026;28;20077;-80
2022/07/02 03:22:16;;;;;;;5.95;2.08;;;14.00;99.90;;;;;;5021541;28;20037;-80
2022/07/02 03:24:42;;;;;;;3.67;1.85;;;14.00;99.90;;;;;;5020412;28;20098;-80
2022/07/02 03:27:07;;;;;;;1.60;1.45;;;14.00;99.90;;;;;;5021430;28;20120;-80
2022/07/02 03:29:33;;;;;;;2.58;2.05;;;13.90;99.90;;;;;;5019831;28;20057;-81
2022/07/02 03:31:59;;;;;;;2.47;2.28;;;14.00;99.90;;;;;;5020739;28;20037;-80
2022/07/02 03:34:24;;;;;;;1.35;1.27;;;14.00;99.90;;;;;;5020561;28;20045;-80
2022/07/02 03:36:50;;;;;;;4.30;1.92;;;13.90;99.90;;;;;;5021266;28;20053;-80
2022/07/02 03:39:15;;;;;;;2.03;1.77;;;13.90;99.90;;;;;;5020981;28;20052;-81
2022/07/02 03:41:41;;;;;;;1.80;1.70;;;13.90;99.90;;;;;;5021109;28;20045;-80
2022/07/02 03:44:06;;;;;;;2.60;1.77;;;13.90;99.90;;;;;;5021201;28;20283;-80
2022/07/02 03:46:32;;;;;;;4.07;2.28;;;14.00;99.90;;;;;;5021873;28;20150;-80
2022/07/02 03:48:57;;;;;;;4.38;2.22;;;14.00;99.90;;;;;;5020600;28;20046;-80
2022/07/02 03:51:23;;;;;;;2.33;2.13;;;14.00;99.90;;;;;;5020428;28;20051;-80
2022/07/02 03:53:49;;;;;;;2.72;1.92;;;14.00;99.90;;;;;;5018164;28;20045;-80
2022/07/02 03:56:14;;;;;;;4.07;2.25;;;14.00;99.90;;;;;;5021194;28;20034;-80
2022/07/02 03:58:40;;;;;;;2.22;1.95;;;14.00;99.90;;;;;;5021573;28;20091;-81
2022/07/02 04:01:07;;;;;;;2.85;2.22;;;14.00;99.90;;;;;;5021301;28;20033;-80
2022/07/02 04:03:33;;;;;;;1.98;1.70;;;14.10;99.90;;;;;;5020160;28;20068;-80
2022/07/02 04:06:00;;;;;;;4.95;2.63;;;14.10;99.90;;;;;;5019443;28;20050;-80
2022/07/02 04:08:25;;;;;;;2.13;2.00;;;14.10;99.90;;;;;;5019543;28;20052;-81
2022/07/02 04:10:51;;;;;;;2.45;2.17;;;14.10;99.90;;;;;;5019923;28;20471;-80
2022/07/02 04:13:16;;;;;;;2.65;2.33;;;14.10;99.90;;;;;;5020471;28;20104;-80
2022/07/02 04:15:42;;;;;;;2.58;2.30;;;14.20;99.90;;;;;;5021298;28;20065;-80
2022/07/02 04:18:08;;;;;;;7.22;2.88;;;14.20;99.90;;;;;;5020544;28;20123;-80
2022/07/02 04:20:33;;;;;;;3.70;1.60;;;14.20;99.90;;;;;;5020699;28;20069;-80
2022/07/02 04:22:59;;;;;;;2.47;1.70;;;14.20;99.90;;;;;;5020958;28;20044;-81
2022/07/02 04:25:25;;;;;;;5.40;2.90;;;14.20;99.90;;;;;;5019947;28;20464;-81
2022/07/02 04:27:50;;;;;;;3.92;1.95;;;14.20;99.90;;;;;;5020172;28;20411;-80
2022/07/02 04:30:16;;;;;;;9.40;2.58;;;14.30;99.90;;;;;;5020357;28;20084;-80
2022/07/02 04:32:41;;;;;;;2.58;2.10;;;14.30;99.90;;;;;;5020898;28;20095;-80
2022/07/02 04:35:07;;;;;;;4.53;2.40;;;14.30;99.90;;;;;;5019134;28;20034;-80
2022/07/02 04:37:33;;;;;;;3.17;2.88;;;14.30;99.90;;;;;;5020803;28;20510;-80
2022/07/02 04:39:58;;;;;;;3.30;1.95;;;14.30;99.90;;;;;;5018190;28;20124;-80
2022/07/02 04:42:24;;;;;;;2.80;1.95;;;14.40;99.90;;;;;;5020283;28;20484;-81
2022/07/02 04:44:50;;;;;;;2.72;2.45;;;14.40;99.90;;;;;;5020090;28;20528;-80
2022/07/02 04:47:15;;;;;;;2.55;2.15;;;14.50;99.90;;;;;;5020475;28;20038;-80
2022/07/02 04:49:41;;;;;;;2.53;2.10;;;14.50;99.90;;;;;;5021223;28;20517;-80
2022/07/02 04:52:06;;;;;;;3.92;2.50;;;14.50;99.90;;;;;;5020411;28;20120;-80
2022/07/02 04:54:32;;;;;;;2.40;2.20;;;14.60;99.90;;;;;;5019119;28;20682;-80
2022/07/02 04:56:58;;;;;;;4.68;2.38;;;14.60;99.90;;;;;;5020002;28;20076;-80
2022/07/02 04:59:23;;;;;;;4.75;2.70;;;14.60;99.90;;;;;;5020273;28;20686;-80
2022/07/02 05:01:51;;;;;;;3.88;3.08;;;14.70;99.90;;;;;;5018788;28;20502;-80
2022/07/02 05:04:17;;;;;;;3.05;2.75;;;14.70;99.90;;;;;;5019795;28;20507;-81
2022/07/02 05:06:43;;;;;;;5.18;2.88;;;14.80;99.90;;;;;;5020988;28;20068;-80
2022/07/02 05:09:09;;;;;;;5.05;2.75;;;14.80;99.90;;;;;;5020083;28;20515;-80
2022/07/02 05:11:34;;;;;;;3.00;2.15;;;14.90;99.90;;;;;;5019924;28;20110;-80
2022/07/02 05:14:00;;;;;;;3.40;2.70;;;14.90;99.90;;;;;;5020029;28;20116;-80
2022/07/02 05:16:25;;;;;;;4.18;3.13;;;14.90;99.90;;;;;;5002934;28;20188;-80
2022/07/02 05:18:51;;;;;;;2.47;2.28;;;15.00;99.90;;;;;;5018613;28;20041;-80
2022/07/02 05:21:17;;;;;;;2.85;2.45;;;15.00;99.90;;;;;;5019162;28;20423;-80
2022/07/02 05:23:42;;;;;;;4.50;2.72;;;15.10;99.90;;;;;;5019106;28;20152;-80
2022/07/02 05:26:08;;;;;;;3.85;1.90;;;15.10;99.90;;;;;;5020094;28;20472;-80
2022/07/02 05:28:33;;;;;;;5.43;2.20;;;15.20;99.90;;;;;;5019862;28;20080;-82
2022/07/02 05:30:59;;;;;;;3.15;2.17;;;15.20;99.90;;;;;;5018885;28;20041;-81
2022/07/02 05:33:24;;;;;;;3.58;2.15;;;15.20;99.90;;;;;;5020211;28;20610;-81
2022/07/02 05:35:51;;;;;;;1.38;1.27;;;15.40;99.90;;;;;;5019941;28;20038;-81
2022/07/02 05:38:17;;;;;;;3.42;2.70;;;15.40;99.90;;;;;;5018886;28;20041;-80
2022/07/02 05:40:43;;;;;;;4.78;2.13;;;15.40;99.90;;;;;;5018547;28;20048;-81
2022/07/02 05:43:09;;;;;;;5.72;1.60;;;15.50;99.90;;;;;;5020467;28;20041;-81
2022/07/02 05:45:34;;;;;;;4.28;2.28;;;15.50;99.90;;;;;;5019915;28;20046;-81
2022/07/02 05:48:00;;;;;;;2.72;1.75;;;15.60;99.90;;;;;;5022181;28;20037;-81
2022/07/02 05:50:25;;;;;;;4.50;2.10;;;15.70;99.90;;;;;;5024002;28;20040;-81
2022/07/02 05:52:51;;;;;;;2.25;0.95;;;15.70;99.90;;;;;;5023208;28;20045;-81
2022/07/02 05:55:17;;;;;;;2.33;1.42;;;15.80;99.90;;;;;;5022560;28;20034;-82
2022/07/02 05:57:42;;;;;;;4.80;1.58;;;15.90;99.90;;;;;;5022958;28;20041;-81
2022/07/02 06:00:10;;;;;;;3.55;1.35;;;16.00;99.90;;;;;;5022528;28;20480;-81
2022/07/02 06:02:36;;;;;;;3.67;1.35;;;16.00;99.90;;;;;;5022554;28;20037;-81
2022/07/02 06:07:47;;;;;;;4.97;1.35;;;16.10;99.90;;;;;;5022698;28;20051;-80
2022/07/02 06:10:19;;;;;;;7.35;1.75;;;16.20;99.90;;;;;;5022546;28;20057;-81
2022/07/02 06:12:49;;;;;;;3.58;1.40;;;16.20;99.90;;;;;;5021858;28;20576;-81
2022/07/02 06:15:16;;;;;;;2.28;1.33;;;16.20;99.90;;;;;;5023272;28;20443;-81
2022/07/02 06:17:43;;;;;;;2.10;1.13;;;16.30;99.90;;;;;;5023443;28;20139;-81
2022/07/02 06:20:09;;;;;;;5.63;1.23;;;16.30;99.90;;;;;;5023114;28;20046;-81
2022/07/02 06:22:35;;;;;;;0.95;0.95;;;16.30;99.90;;;;;;5022201;28;20068;-81
2022/07/02 06:25:00;;;;;;;1.05;0.85;;;16.40;99.90;;;;;;5020493;28;20049;-81
2022/07/02 06:27:26;;;;;;;1.95;1.58;;;16.40;99.90;;;;;;5023434;28;20095;-81
2022/07/02 06:29:52;;;;;;;1.20;1.10;;;16.40;99.90;;;;;;5021238;28;20041;-81
2022/07/02 06:32:17;;;;;;;3.47;1.08;;;16.50;99.90;;;;;;5021612;28;20120;-81
2022/07/02 06:34:43;;;;;;;2.15;0.82;;;16.60;99.90;;;;;;5023481;28;20519;-81
2022/07/02 06:37:10;;;;;;;0.77;0.77;;;16.60;99.90;;;;;;5021699;28;20119;-81
2022/07/02 06:39:36;;;;;;;0.85;0.82;;;16.60;99.90;;;;;;5021875;28;20052;-81
2022/07/02 06:42:20;;;;;;;3.25;1.50;;;16.70;99.90;;;;;;5005346;28;20045;-81
2022/07/02 06:44:47;;;;;;;2.85;1.55;;;16.70;99.90;;;;;;5021857;28;20033;-81
2022/07/02 06:47:16;;;;;;;3.65;1.33;;;16.70;99.90;;;;;;5023066;28;20042;-81
2022/07/02 06:49:42;;;;;;;1.30;0.80;;;16.70;99.90;;;;;;5022010;28;20056;-80
2022/07/02 06:52:08;;;;;;;3.10;1.35;;;16.80;99.90;;;;;;5022071;28;20119;-81
2022/07/02 06:54:35;;;;;;;1.40;1.17;;;16.90;99.90;;;;;;5021794;28;20547;-81
2022/07/02 06:57:01;;;;;;;2.92;1.17;;;16.90;99.90;;;;;;5022431;28;20122;-81
2022/07/02 06:59:26;;;;;;;4.85;1.23;;;17.00;99.90;;;;;;5021804;28;20037;-81
2022/07/02 07:01:52;;;;;;;1.02;0.75;;;17.00;99.90;;;;;;5022243;28;20037;-81
2022/07/02 07:04:17;;;;;;;1.95;1.08;;;17.00;99.90;;;;;;5022226;28;20124;-82
2022/07/02 07:09:14;;;;;;;0.60;0.60;;;17.10;99.90;;;;;;5020006;28;20507;-81
2022/07/02 07:11:40;;;;;;;0.82;0.65;;;17.00;99.90;;;;;;5022225;28;20303;-82
2022/07/02 07:14:05;;;;;;;1.65;1.23;;;17.10;99.90;;;;;;5020376;28;20503;-81
2022/07/02 07:16:31;;;;;;;1.98;0.85;;;17.10;99.90;;;;;;5021957;28;20057;-82
2022/07/02 07:19:01;;;;;;;1.00;1.00;;;17.10;99.90;;;;;;5021767;28;20410;-81
2022/07/02 07:21:26;;;;;;;2.50;0.95;;;17.10;99.90;;;;;;5020488;28;20124;-81
2022/07/02 07:23:52;;;;;;;1.60;0.82;;;17.10;99.90;;;;;;5020743;28;20572;-81
2022/07/02 07:26:18;;;;;;;4.50;1.67;;;17.10;99.90;;;;;;5022148;28;20439;-81
2022/07/02 07:28:43;;;;;;;1.55;1.08;;;17.20;99.90;;;;;;5021062;28;20046;-79
2022/07/02 07:31:09;;;;;;;0.80;0.77;;;17.20;99.90;;;;;;5020719;28;20052;-81
2022/07/02 07:33:35;;;;;;;6.80;1.30;;;17.30;99.90;;;;;;5020975;28;20049;-81
2022/07/02 07:36:00;;;;;;;1.73;0.98;;;17.30;99.90;;;;;;5019294;28;20592;-81
2022/07/02 07:38:26;;;;;;;3.25;0.95;;;17.40;99.90;;;;;;5018976;28;20052;-82
2022/07/02 07:40:51;;;;;;;5.32;0.75;;;17.50;99.90;;;;;;5020446;28;20045;-81
2022/07/02 07:43:17;;;;;;;3.92;0.90;;;17.50;99.90;;;;;;5019441;28;20037;-82
2022/07/02 07:45:43;;;;;;;3.00;0.93;;;17.60;99.90;;;;;;5021372;28;20812;-81
2022/07/02 07:48:08;;;;;;;3.15;0.90;;;17.70;99.90;;;;;;5015805;28;20325;-82
2022/07/02 07:50:34;;;;;;;0.77;0.77;;;17.80;99.90;;;;;;5025299;28;20113;-83
2022/07/02 07:53:00;;;;;;;0.70;0.70;;;17.80;99.90;;;;;;5019976;28;20037;-81
2022/07/02 07:55:26;;;;;;;2.58;1.00;;;17.90;99.90;;;;;;5018727;28;20075;-82
2022/07/02 07:57:51;;;;;;;3.83;1.00;;;17.90;99.90;;;;;;5022180;28;20050;-81
2022/07/02 08:00:17;;;;;;;2.35;0.85;;;17.90;99.90;;;;;;5018645;28;20127;-81
2022/07/02 08:02:43;;;;;;;2.92;1.40;;;17.90;99.90;;;;;;5022104;28;20396;-81
2022/07/02 08:05:09;;;;;;;0.80;0.65;;;17.90;99.90;;;;;;5022192;28;20037;-81
2022/07/02 08:07:38;;;;;;;2.80;1.25;;;17.90;99.90;;;;;;5021014;28;20037;-81
2022/07/02 08:10:10;;;;;;;1.73;0.70;;;17.90;99.90;;;;;;5036001;28;20052;-81
2022/07/02 08:12:36;;;;;;;0.30;0.30;;;17.90;99.90;;;;;;5016452;28;20487;-81
2022/07/02 08:15:02;;;;;;;3.63;0.82;;;17.90;99.90;;;;;;5024925;28;20072;-81
2022/07/02 08:17:29;;;;;;;1.13;0.75;;;17.90;99.90;;;;;;5020716;28;20474;-80
2022/07/02 08:19:55;;;;;;;1.15;0.70;;;18.00;99.90;;;;;;5020923;28;20056;-82
2022/07/02 08:22:21;;;;;;;1.55;1.15;;;18.00;99.90;;;;;;5021051;28;20045;-81
2022/07/02 08:24:46;;;;;;;1.05;0.77;;;18.10;99.90;;;;;;5019687;28;20625;-81
2022/07/02 08:27:12;;;;;;;0.80;0.80;;;18.10;99.90;;;;;;5018660;28;20071;-81
2022/07/02 08:29:38;;;;;;;0.77;0.77;;;18.10;99.90;;;;;;5015612;28;20047;-80
2022/07/02 08:32:04;;;;;;;5.28;1.58;;;18.20;99.90;;;;;;5018692;28;20080;-81
2022/07/02 08:34:31;;;;;;;2.35;0.77;;;18.20;99.90;;;;;;5020641;28;20120;-81
2022/07/02 08:36:57;;;;;;;1.50;0.93;;;18.20;99.90;;;;;;5018566;28;20123;-81
2022/07/02 08:39:22;;;;;;;0.68;0.50;;;18.20;99.90;;;;;;5019535;28;20150;-81
2022/07/02 08:41:49;;;;;;;1.23;0.88;;;18.20;99.90;;;;;;5020780;28;20040;-81
2022/07/02 08:44:16;;;;;;;1.45;1.05;;;18.10;99.90;;;;;;5026607;28;20511;-80
2022/07/02 08:46:43;;;;;;;1.30;0.75;;;18.00;99.90;;;;;;5018958;28;20041;-81
2022/07/02 08:49:10;;;;;;;0.95;0.88;;;18.10;99.90;;;;;;5017133;28;20483;-81
2022/07/02 08:51:36;;;;;;;2.15;0.95;;;18.10;99.90;;;;;;5016630;28;20046;-81
2022/07/02 08:54:02;;;;;;;9.38;1.08;;;18.20;99.90;;;;;;5019060;28;20044;-82
2022/07/02 08:56:31;;;;;;;0.82;0.82;;;18.30;99.90;;;;;;5019955;28;20033;-81
2022/07/02 08:58:58;;;;;;;1.52;0.57;;;18.40;99.90;;;;;;5026797;28;20506;-81
2022/07/02 09:01:24;;;;;;;1.30;0.55;;;18.50;99.90;;;;;;5040418;28;20059;-82
2022/07/02 09:03:52;;;;;;;0.55;0.55;;;18.50;99.90;;;;;;5035329;28;20045;-82
2022/07/02 09:06:22;;;;;;;1.45;0.85;;;18.60;99.90;;;;;;5022480;28;20128;-81
2022/07/02 09:08:47;;;;;;;0.93;0.90;;;18.60;99.90;;;;;;5018904;28;20050;-82
2022/07/02 09:11:14;;;;;;;1.60;0.70;;;18.60;99.90;;;;;;5010441;28;20112;-82
2022/07/02 09:13:40;;;;;;;1.45;0.70;;;18.50;99.90;;;;;;5013237;28;20049;-84
2022/07/02 09:16:06;;;;;;;0.40;0.40;;;18.50;99.90;;;;;;5008628;28;20412;-83
2022/07/02 09:18:33;;;;;;;1.55;0.90;;;18.40;99.90;;;;;;5019179;28;20037;-81
2022/07/02 09:20:58;;;;;;;2.05;0.65;;;18.50;99.90;;;;;;5019402;28;20034;-83
2022/07/02 09:23:24;;;;;;;1.08;0.77;;;18.50;99.90;;;;;;5020758;28;20047;-82
2022/07/02 09:25:50;;;;;;;1.13;0.60;;;18.50;99.90;;;;;;5022632;28;20119;-83
2022/07/02 09:28:17;;;;;;;0.90;0.88;;;18.50;99.90;;;;;;5022941;28;20052;-83
2022/07/02 09:30:43;;;;;;;6.50;0.70;;;18.60;99.90;;;;;;5024015;28;20144;-83
2022/07/02 09:33:30;;;;;;;2.22;1.42;;;18.60;99.90;;;;;;5024080;28;20138;-83
2022/07/02 09:36:00;;;;;;;1.15;0.68;;;18.70;99.90;;;;;;5062494;28;20086;-83
2022/07/02 09:38:26;;;;;;;4.43;0.70;;;18.70;99.90;;;;;;5023784;28;20167;-83
2022/07/02 09:40:59;;;;;;;1.85;1.00;;;18.70;99.90;;;;;;5021793;28;20060;-82
2022/07/02 09:43:29;;;;;;;3.33;0.95;;;18.70;99.90;;;;;;5022189;28;20500;-81
2022/07/02 09:45:55;;;;;;;0.65;0.65;;;18.80;99.90;;;;;;5022462;28;20037;-81
2022/07/02 09:48:21;;;;;;;0.80;0.80;;;18.80;99.90;;;;;;5021380;28;20395;-82
2022/07/02 09:50:51;;;;;;;4.28;1.30;;;18.80;99.90;;;;;;5023244;28;20057;-81
2022/07/02 09:53:18;;;;;;;0.73;0.73;;;18.80;99.90;;;;;;5023136;28;20441;-80
2022/07/02 09:55:48;;;;;;;0.60;0.60;;;18.80;99.90;;;;;;5021762;28;20115;-79
2022/07/02 09:58:21;;;;;;;1.00;0.70;;;18.90;99.90;;;;;;5022807;28;20045;-81
2022/07/02 10:00:47;;;;;;;0.90;0.82;;;19.00;99.90;;;;;;5021680;28;20460;-82
2022/07/02 10:03:13;;;;;;;0.50;0.50;;;19.00;99.90;;;;;;5022990;28;20045;-93
2022/07/02 10:05:39;;;;;;;1.23;0.93;;;19.10;99.90;;;;;;5055782;28;20050;-90
2022/07/02 10:08:05;;;;;;;0.40;0.40;;;19.20;99.90;;;;;;5022376;28;20120;-93
2022/07/02 10:12:59;;;;;;;3.97;1.50;;;19.30;99.90;;;;;;5023170;28;20112;-93
2022/07/02 10:15:29;;;;;;;1.20;1.10;;;19.30;99.90;;;;;;5024257;28;20034;-82
2022/07/02 10:17:56;;;;;;;1.17;0.77;;;19.30;99.90;;;;;;5023082;28;20038;-80
2022/07/02 10:20:25;;;;;;;1.33;0.90;;;19.30;99.90;;;;;;5023202;28;20072;-85
2022/07/02 10:22:51;;;;;;;1.75;0.50;;;19.30;99.90;;;;;;5021407;28;20124;-80
2022/07/02 10:25:20;;;;;;;0.38;0.38;;;19.30;99.90;;;;;;5054620;28;20128;-83
2022/07/02 10:27:46;;;;;;;0.68;0.55;;;19.30;99.90;;;;;;5022169;28;20056;-79
2022/07/02 10:30:15;;;;;;;0.65;0.63;;;19.40;99.90;;;;;;5023235;28;20091;-79
2022/07/02 10:32:55;;;;;;;0.85;0.55;;;19.40;99.90;;;;;;5021403;28;20095;-84
2022/07/02 10:35:23;;;;;;;0.43;0.43;;;19.40;99.90;;;;;;5021738;28;20495;-91
2022/07/02 10:37:59;;;;;;;4.18;0.90;;;19.40;99.90;;;;;;5020572;28;20049;-86
2022/07/02 10:40:25;;;;;;;0.73;0.68;;;19.40;99.90;;;;;;5022067;28;20034;-85
2022/07/02 10:42:53;;;;;;;0.50;0.50;;;19.50;99.90;;;;;;5021885;28;20040;-83
2022/07/02 10:45:21;;;;;;;0.55;0.55;;;19.50;99.90;;;;;;5018735;28;20124;-82
2022/07/02 10:47:57;;;;;;;0.65;0.63;;;19.60;99.90;;;;;;5020982;28;20182;-83
2022/07/02 10:50:35;;;;;;;1.00;0.80;;;19.70;99.90;;;;;;5053484;28;20067;-83
2022/07/02 10:53:22;;;;;;;0.90;0.50;;;19.70;99.90;;;;;;5021345;28;20045;-83
2022/07/02 10:55:50;;;;;;;1.50;0.68;;;19.80;99.90;;;;;;5022602;28;20049;-83
2022/07/02 10:58:25;;;;;;;3.05;0.90;;;19.80;99.90;;;;;;5022704;28;20046;-83
2022/07/02 11:00:51;;;;;;;2.45;0.80;;;19.80;99.90;;;;;;5022471;28;20923;-82
2022/07/02 11:03:26;;;;;;;0.90;0.90;;;19.90;99.90;;;;;;5054101;28;20077;-83
2022/07/02 11:06:04;;;;;;;1.55;0.40;;;19.90;99.90;;;;;;5021947;28;20045;-83
2022/07/02 11:08:44;;;;;;;0.70;0.70;;;19.90;99.90;;;;;;5021876;28;20033;-83
2022/07/02 11:11:32;;;;;;;0.65;0.65;;;19.90;99.90;;;;;;5022297;28;20435;-82
2022/07/02 11:13:58;;;;;;;0.82;0.82;;;20.00;99.90;;;;;;5000815;28;20054;-82
2022/07/02 11:16:45;;;;;;;0.60;0.60;;;20.00;99.90;;;;;;5009142;28;20506;-81
2022/07/02 11:19:27;;;;;;;1.63;1.05;;;20.00;99.90;;;;;;5041363;28;20056;-81
2022/07/02 11:21:58;;;;;;;2.75;0.80;;;20.00;99.90;;;;;;5036166;28;20052;-82
2022/07/02 11:24:26;;;;;;;0.55;0.55;;;20.00;99.90;;;;;;5019284;28;20073;-81
2022/07/02 11:26:52;;;;;;;0.98;0.70;;;20.10;99.90;;;;;;5018955;28;20052;-80
2022/07/02 11:29:18;;;;;;;0.45;0.32;;;20.20;99.90;;;;;;5020377;28;20044;-80
2022/07/02 11:31:49;;;;;;;1.75;0.80;;;20.30;99.90;;;;;;5021817;28;20129;-79
2022/07/02 11:34:34;;;;;;;0.30;0.30;;;20.30;99.90;;;;;;5053197;28;20049;-81
2022/07/02 11:37:01;;;;;;;1.95;0.60;;;20.40;99.90;;;;;;5010751;28;20133;-81
2022/07/02 11:39:28;;;;;;;0.65;0.65;;;20.40;99.90;;;;;;5006554;28;20054;-80
2022/07/02 11:41:54;;;;;;;0.52;0.50;;;20.50;99.90;;;;;;5014623;28;20124;-83
2022/07/02 11:44:25;;;;;;;0.70;0.60;;;20.50;99.90;;;;;;5018772;28;20458;-80
2022/07/02 11:46:53;;;;;;;1.27;0.63;;;20.50;99.90;;;;;;5019485;28;20048;-80
2022/07/02 11:49:20;;;;;;;1.02;0.73;;;20.50;99.90;;;;;;5014680;28;20033;-81
2022/07/02 11:51:47;;;;;;;1.10;1.08;;;20.50;99.90;;;;;;5019507;28;20138;-81
2022/07/02 11:54:14;;;;;;;0.55;0.55;;;20.50;99.90;;;;;;5001922;28;20120;-85
2022/07/02 11:56:41;;;;;;;0.57;0.57;;;20.60;99.90;;;;;;5019950;28;20124;-79
2022/07/02 11:59:12;;;;;;;1.75;0.90;;;20.60;99.90;;;;;;5019143;28;20049;-80
2022/07/02 12:01:41;;;;;;;1.55;1.35;;;20.70;99.90;;;;;;5016907;28;20037;-81
2022/07/02 12:04:10;;;;;;;1.75;0.77;;;20.70;99.90;;;;;;5019443;28;20037;-83
2022/07/02 12:06:39;;;;;;;0.80;0.80;;;20.80;99.90;;;;;;5020797;28;20170;-85
2022/07/02 12:09:07;;;;;;;0.88;0.70;;;20.80;99.90;;;;;;5019285;28;20356;-82
2022/07/02 12:11:35;;;;;;;0.63;0.60;;;20.80;99.90;;;;;;5018604;28;20164;-79
2022/07/02 12:14:01;;;;;;;0.60;0.60;;;20.80;99.90;;;;;;5021002;28;20048;-79
2022/07/02 12:16:27;;;;;;;0.60;0.60;;;20.80;99.90;;;;;;5020757;28;20042;-79
2022/07/02 12:18:57;;;;;;;1.48;0.50;;;20.80;99.90;;;;;;5020941;28;20064;-78
2022/07/02 12:21:31;;;;;;;0.77;0.77;;;20.80;99.90;;;;;;5021397;28;20045;-79
2022/07/02 12:23:56;;;;;;;1.52;1.13;;;20.80;99.90;;;;;;5018368;28;20211;-78
2022/07/02 12:26:27;;;;;;;1.85;0.80;;;20.80;99.90;;;;;;5019654;28;20830;-78
2022/07/02 12:31:50;;;;;;;0.55;0.50;;;20.90;99.90;;;;;;5019978;28;20064;-83
2022/07/02 12:34:17;;;;;;;0.32;0.32;;;21.00;99.90;;;;;;5020068;28;20034;-83
2022/07/02 12:37:03;;;;;;;2.40;0.60;;;21.00;99.90;;;;;;5021103;28;20045;-80
2022/07/02 12:39:41;;;;;;;1.88;0.63;;;21.00;99.90;;;;;;5019566;28;20061;-83
2022/07/02 12:42:20;;;;;;;1.52;1.15;;;21.10;99.90;;;;;;5020138;28;20045;-82
2022/07/02 12:45:04;;;;;;;0.55;0.55;;;21.00;99.90;;;;;;5019464;28;20132;-83
2022/07/02 12:47:34;;;;;;;0.63;0.60;;;21.10;99.90;;;;;;5020738;28;20084;-83
2022/07/02 12:50:04;;;;;;;0.57;0.47;;;21.20;99.90;;;;;;5020756;28;20045;-86
2022/07/02 12:52:31;;;;;;;1.65;0.73;;;21.30;99.90;;;;;;5019798;28;20136;-80
2022/07/02 12:54:59;;;;;;;1.65;0.50;;;21.30;99.90;;;;;;5020093;28;20077;-80
2022/07/02 12:57:25;;;;;;;0.43;0.43;;;21.30;99.90;;;;;;5022672;28;20064;-80
2022/07/02 12:59:52;;;;;;;1.00;0.50;;;21.40;99.90;;;;;;5023268;28;20041;-81
2022/07/02 13:02:24;;;;;;;2.20;0.73;;;21.40;99.90;;;;;;5023502;28;20037;-80